Terminal Aerodrome Forecast
Issued by NWS

Home | Current Version | Previous Version | Text Only | Print | Product List | Glossary On
Versions: 1 2 3 4 5 6 7 8 9 10 11 12 13 14 15 16 17 18 19 20 21
419
FTUS43 KLSX 291035 AAA
TAFUIN
TAF AMD
KUIN 291035Z 2911/3006 31004KT P6SM SCT250
     FM291300 31005KT P6SM SCT040
     FM300200 34004KT P6SM SCT200=

USA.gov is the U.S. government's official web portal to all federal, state and local government web resources and services.